sensor_id;sensor_type;location;lat;lon;timestamp;P1;durP1;ratioP1;P2;durP2;ratioP2
82415;SDS011;72058;47.782;10.618;2024-02-21T00:01:51;4.55;;;3.83;;
82415;SDS011;72058;47.782;10.618;2024-02-21T00:04:17;4.80;;;4.13;;
82415;SDS011;72058;47.782;10.618;2024-02-21T00:06:42;4.13;;;3.70;;
82415;SDS011;72058;47.782;10.618;2024-02-21T00:09:08;7.47;;;4.00;;
82415;SDS011;72058;47.782;10.618;2024-02-21T00:11:34;4.72;;;4.32;;
82415;SDS011;72058;47.782;10.618;2024-02-21T00:14:00;4.75;;;4.18;;
82415;SDS011;72058;47.782;10.618;2024-02-21T00:16:25;7.50;;;5.40;;
82415;SDS011;72058;47.782;10.618;2024-02-21T00:18:51;7.07;;;4.85;;
82415;SDS011;72058;47.782;10.618;2024-02-21T00:21:16;6.47;;;5.60;;
82415;SDS011;72058;47.782;10.618;2024-02-21T00:23:43;5.82;;;3.90;;
82415;SDS011;72058;47.782;10.618;2024-02-21T00:26:11;5.03;;;4.53;;
82415;SDS011;72058;47.782;10.618;2024-02-21T00:28:37;4.30;;;3.90;;
82415;SDS011;72058;47.782;10.618;2024-02-21T00:31:03;4.22;;;3.80;;
82415;SDS011;72058;47.782;10.618;2024-02-21T00:33:28;4.97;;;3.88;;
82415;SDS011;72058;47.782;10.618;2024-02-21T00:35:53;6.47;;;4.70;;
82415;SDS011;72058;47.782;10.618;2024-02-21T00:38:19;5.03;;;4.03;;
82415;SDS011;72058;47.782;10.618;2024-02-21T00:40:44;4.53;;;3.83;;
82415;SDS011;72058;47.782;10.618;2024-02-21T00:43:09;4.13;;;3.83;;
82415;SDS011;72058;47.782;10.618;2024-02-21T00:45:35;5.03;;;4.30;;
82415;SDS011;72058;47.782;10.618;2024-02-21T00:48:00;4.82;;;4.03;;
82415;SDS011;72058;47.782;10.618;2024-02-21T00:50:25;5.53;;;5.13;;
82415;SDS011;72058;47.782;10.618;2024-02-21T00:52:51;4.80;;;4.03;;
82415;SDS011;72058;47.782;10.618;2024-02-21T00:55:16;3.90;;;3.60;;
82415;SDS011;72058;47.782;10.618;2024-02-21T00:57:41;3.80;;;3.50;;
82415;SDS011;72058;47.782;10.618;2024-02-21T01:00:07;3.53;;;3.23;;
82415;SDS011;72058;47.782;10.618;2024-02-21T01:02:33;4.40;;;4.10;;
82415;SDS011;72058;47.782;10.618;2024-02-21T01:04:58;4.07;;;3.63;;
82415;SDS011;72058;47.782;10.618;2024-02-21T01:07:24;3.50;;;3.20;;
82415;SDS011;72058;47.782;10.618;2024-02-21T01:09:49;4.00;;;3.63;;
82415;SDS011;72058;47.782;10.618;2024-02-21T01:12:16;4.38;;;3.97;;
82415;SDS011;72058;47.782;10.618;2024-02-21T01:14:41;8.07;;;7.07;;
82415;SDS011;72058;47.782;10.618;2024-02-21T01:17:07;9.27;;;6.97;;
82415;SDS011;72058;47.782;10.618;2024-02-21T01:19:32;9.23;;;6.93;;
82415;SDS011;72058;47.782;10.618;2024-02-21T01:21:57;7.55;;;5.45;;
82415;SDS011;72058;47.782;10.618;2024-02-21T01:24:23;5.83;;;5.20;;
82415;SDS011;72058;47.782;10.618;2024-02-21T01:26:49;5.97;;;5.53;;
82415;SDS011;72058;47.782;10.618;2024-02-21T01:29:15;5.10;;;4.45;;
82415;SDS011;72058;47.782;10.618;2024-02-21T01:31:40;5.25;;;4.75;;
82415;SDS011;72058;47.782;10.618;2024-02-21T01:34:05;4.60;;;3.93;;
82415;SDS011;72058;47.782;10.618;2024-02-21T01:36:31;4.23;;;3.83;;
82415;SDS011;72058;47.782;10.618;2024-02-21T01:38:56;4.90;;;4.50;;
82415;SDS011;72058;47.782;10.618;2024-02-21T01:41:21;5.07;;;4.57;;
82415;SDS011;72058;47.782;10.618;2024-02-21T01:43:47;4.60;;;3.87;;
82415;SDS011;72058;47.782;10.618;2024-02-21T01:46:12;4.10;;;3.70;;
82415;SDS011;72058;47.782;10.618;2024-02-21T01:48:37;4.13;;;3.73;;
82415;SDS011;72058;47.782;10.618;2024-02-21T01:51:03;4.07;;;3.22;;
82415;SDS011;72058;47.782;10.618;2024-02-21T01:53:30;3.95;;;3.65;;
82415;SDS011;72058;47.782;10.618;2024-02-21T01:55:57;4.38;;;3.75;;
82415;SDS011;72058;47.782;10.618;2024-02-21T01:58:23;5.38;;;3.72;;
82415;SDS011;72058;47.782;10.618;2024-02-21T02:00:48;3.88;;;3.60;;
82415;SDS011;72058;47.782;10.618;2024-02-21T02:03:15;4.63;;;4.07;;
82415;SDS011;72058;47.782;10.618;2024-02-21T02:05:44;4.85;;;4.43;;
82415;SDS011;72058;47.782;10.618;2024-02-21T02:08:13;4.15;;;3.75;;
82415;SDS011;72058;47.782;10.618;2024-02-21T02:10:40;4.43;;;4.03;;
82415;SDS011;72058;47.782;10.618;2024-02-21T02:13:06;4.97;;;4.57;;
82415;SDS011;72058;47.782;10.618;2024-02-21T02:15:41;4.40;;;4.03;;
82415;SDS011;72058;47.782;10.618;2024-02-21T02:18:08;4.00;;;3.60;;
82415;SDS011;72058;47.782;10.618;2024-02-21T02:20:33;4.75;;;4.35;;
82415;SDS011;72058;47.782;10.618;2024-02-21T02:22:59;3.88;;;3.20;;
82415;SDS011;72058;47.782;10.618;2024-02-21T02:25:26;4.05;;;3.75;;
82415;SDS011;72058;47.782;10.618;2024-02-21T02:27:53;5.28;;;4.55;;
82415;SDS011;72058;47.782;10.618;2024-02-21T02:30:19;3.53;;;3.05;;
82415;SDS011;72058;47.782;10.618;2024-02-21T02:32:45;4.43;;;3.00;;
82415;SDS011;72058;47.782;10.618;2024-02-21T02:35:11;3.40;;;3.10;;
82415;SDS011;72058;47.782;10.618;2024-02-21T02:37:36;5.15;;;4.75;;
82415;SDS011;72058;47.782;10.618;2024-02-21T02:40:04;3.65;;;3.20;;
82415;SDS011;72058;47.782;10.618;2024-02-21T02:44:56;3.50;;;3.20;;
82415;SDS011;72058;47.782;10.618;2024-02-21T02:47:22;3.40;;;3.17;;
82415;SDS011;72058;47.782;10.618;2024-02-21T02:49:47;4.25;;;3.85;;
82415;SDS011;72058;47.782;10.618;2024-02-21T02:52:15;3.83;;;3.53;;
82415;SDS011;72058;47.782;10.618;2024-02-21T02:54:41;4.35;;;4.05;;
82415;SDS011;72058;47.782;10.618;2024-02-21T02:57:06;4.47;;;3.40;;
82415;SDS011;72058;47.782;10.618;2024-02-21T02:59:32;5.00;;;4.60;;
82415;SDS011;72058;47.782;10.618;2024-02-21T03:01:57;3.88;;;3.40;;
82415;SDS011;72058;47.782;10.618;2024-02-21T03:04:23;4.17;;;3.87;;
82415;SDS011;72058;47.782;10.618;2024-02-21T03:06:48;5.03;;;4.73;;
82415;SDS011;72058;47.782;10.618;2024-02-21T03:09:14;3.78;;;2.88;;
82415;SDS011;72058;47.782;10.618;2024-02-21T03:11:40;3.05;;;2.85;;
82415;SDS011;72058;47.782;10.618;2024-02-21T03:14:08;6.25;;;5.80;;
82415;SDS011;72058;47.782;10.618;2024-02-21T03:16:33;3.13;;;2.90;;
82415;SDS011;72058;47.782;10.618;2024-02-21T03:18:59;3.60;;;3.33;;
82415;SDS011;72058;47.782;10.618;2024-02-21T03:21:24;3.07;;;2.87;;
82415;SDS011;72058;47.782;10.618;2024-02-21T03:23:49;3.90;;;3.17;;
82415;SDS011;72058;47.782;10.618;2024-02-21T03:26:15;2.70;;;2.50;;
82415;SDS011;72058;47.782;10.618;2024-02-21T03:28:42;4.00;;;3.60;;
82415;SDS011;72058;47.782;10.618;2024-02-21T03:31:10;3.72;;;3.42;;
82415;SDS011;72058;47.782;10.618;2024-02-21T03:33:36;4.38;;;3.53;;
82415;SDS011;72058;47.782;10.618;2024-02-21T03:36:01;3.30;;;3.00;;
82415;SDS011;72058;47.782;10.618;2024-02-21T03:38:27;3.95;;;3.20;;
82415;SDS011;72058;47.782;10.618;2024-02-21T03:40:52;3.67;;;3.30;;
82415;SDS011;72058;47.782;10.618;2024-02-21T03:43:18;4.47;;;4.13;;
82415;SDS011;72058;47.782;10.618;2024-02-21T03:45:43;3.55;;;3.22;;
82415;SDS011;72058;47.782;10.618;2024-02-21T03:48:08;3.63;;;3.33;;
82415;SDS011;72058;47.782;10.618;2024-02-21T03:50:34;2.63;;;2.43;;
82415;SDS011;72058;47.782;10.618;2024-02-21T03:52:59;4.40;;;4.00;;
82415;SDS011;72058;47.782;10.618;2024-02-21T03:55:24;4.13;;;3.80;;
82415;SDS011;72058;47.782;10.618;2024-02-21T03:57:50;4.47;;;3.87;;
82415;SDS011;72058;47.782;10.618;2024-02-21T04:00:15;3.57;;;3.27;;
82415;SDS011;72058;47.782;10.618;2024-02-21T04:02:41;3.30;;;3.00;;
82415;SDS011;72058;47.782;10.618;2024-02-21T04:05:06;3.43;;;3.20;;
82415;SDS011;72058;47.782;10.618;2024-02-21T04:07:35;3.90;;;3.60;;
82415;SDS011;72058;47.782;10.618;2024-02-21T04:10:01;3.58;;;3.28;;
82415;SDS011;72058;47.782;10.618;2024-02-21T04:12:27;3.22;;;3.03;;
82415;SDS011;72058;47.782;10.618;2024-02-21T04:14:52;3.33;;;3.03;;
82415;SDS011;72058;47.782;10.618;2024-02-21T04:17:18;2.97;;;2.77;;
82415;SDS011;72058;47.782;10.618;2024-02-21T04:19:43;2.85;;;2.60;;
82415;SDS011;72058;47.782;10.618;2024-02-21T04:22:08;3.57;;;2.70;;
82415;SDS011;72058;47.782;10.618;2024-02-21T04:24:33;3.77;;;3.47;;
82415;SDS011;72058;47.782;10.618;2024-02-21T04:26:59;3.65;;;3.35;;
82415;SDS011;72058;47.782;10.618;2024-02-21T04:29:24;3.73;;;3.37;;
82415;SDS011;72058;47.782;10.618;2024-02-21T04:31:49;3.17;;;2.53;;
82415;SDS011;72058;47.782;10.618;2024-02-21T04:34:15;3.13;;;2.90;;
82415;SDS011;72058;47.782;10.618;2024-02-21T04:36:40;3.72;;;3.30;;
82415;SDS011;72058;47.782;10.618;2024-02-21T04:39:06;3.17;;;2.88;;
82415;SDS011;72058;47.782;10.618;2024-02-21T04:41:31;3.80;;;3.47;;
82415;SDS011;72058;47.782;10.618;2024-02-21T04:43:56;3.40;;;3.10;;
82415;SDS011;72058;47.782;10.618;2024-02-21T04:46:22;3.63;;;3.33;;
82415;SDS011;72058;47.782;10.618;2024-02-21T04:48:47;3.20;;;3.00;;
82415;SDS011;72058;47.782;10.618;2024-02-21T04:51:12;5.73;;;5.33;;
82415;SDS011;72058;47.782;10.618;2024-02-21T04:53:38;5.32;;;3.30;;
82415;SDS011;72058;47.782;10.618;2024-02-21T04:56:04;3.65;;;3.35;;
82415;SDS011;72058;47.782;10.618;2024-02-21T04:58:29;3.95;;;3.13;;
82415;SDS011;72058;47.782;10.618;2024-02-21T05:00:55;3.60;;;3.30;;
82415;SDS011;72058;47.782;10.618;2024-02-21T05:03:20;4.20;;;3.30;;
82415;SDS011;72058;47.782;10.618;2024-02-21T05:05:46;3.38;;;3.08;;
82415;SDS011;72058;47.782;10.618;2024-02-21T05:08:12;3.50;;;3.20;;
82415;SDS011;72058;47.782;10.618;2024-02-21T05:10:37;3.55;;;3.25;;
82415;SDS011;72058;47.782;10.618;2024-02-21T05:13:03;4.03;;;3.72;;
82415;SDS011;72058;47.782;10.618;2024-02-21T05:15:29;3.95;;;3.67;;
82415;SDS011;72058;47.782;10.618;2024-02-21T05:17:54;3.63;;;3.33;;
82415;SDS011;72058;47.782;10.618;2024-02-21T05:20:19;4.33;;;3.83;;
82415;SDS011;72058;47.782;10.618;2024-02-21T05:22:45;7.00;;;3.83;;
82415;SDS011;72058;47.782;10.618;2024-02-21T05:25:10;4.33;;;3.93;;
82415;SDS011;72058;47.782;10.618;2024-02-21T05:27:35;3.63;;;3.40;;
82415;SDS011;72058;47.782;10.618;2024-02-21T05:30:01;4.80;;;4.05;;
82415;SDS011;72058;47.782;10.618;2024-02-21T05:32:27;4.03;;;3.60;;
82415;SDS011;72058;47.782;10.618;2024-02-21T05:34:53;4.10;;;3.70;;
82415;SDS011;72058;47.782;10.618;2024-02-21T05:37:18;4.70;;;4.27;;
82415;SDS011;72058;47.782;10.618;2024-02-21T05:39:44;5.73;;;4.67;;
82415;SDS011;72058;47.782;10.618;2024-02-21T05:42:09;4.80;;;4.38;;
82415;SDS011;72058;47.782;10.618;2024-02-21T05:44:34;5.23;;;4.73;;
82415;SDS011;72058;47.782;10.618;2024-02-21T05:47:00;5.87;;;5.10;;
82415;SDS011;72058;47.782;10.618;2024-02-21T05:49:25;7.17;;;4.73;;
82415;SDS011;72058;47.782;10.618;2024-02-21T05:51:50;5.13;;;4.63;;
82415;SDS011;72058;47.782;10.618;2024-02-21T05:54:16;3.80;;;3.50;;
82415;SDS011;72058;47.782;10.618;2024-02-21T05:56:47;4.77;;;4.37;;
82415;SDS011;72058;47.782;10.618;2024-02-21T05:59:12;4.35;;;3.95;;
82415;SDS011;72058;47.782;10.618;2024-02-21T06:01:38;4.05;;;3.65;;
82415;SDS011;72058;47.782;10.618;2024-02-21T06:04:04;4.20;;;3.80;;
82415;SDS011;72058;47.782;10.618;2024-02-21T06:06:30;4.97;;;3.47;;
82415;SDS011;72058;47.782;10.618;2024-02-21T06:08:55;4.15;;;3.80;;
82415;SDS011;72058;47.782;10.618;2024-02-21T06:11:21;10.27;;;7.10;;
82415;SDS011;72058;47.782;10.618;2024-02-21T06:13:46;6.97;;;5.37;;
82415;SDS011;72058;47.782;10.618;2024-02-21T06:16:11;4.93;;;4.43;;
82415;SDS011;72058;47.782;10.618;2024-02-21T06:18:37;4.67;;;4.27;;
82415;SDS011;72058;47.782;10.618;2024-02-21T06:21:02;6.57;;;4.55;;
82415;SDS011;72058;47.782;10.618;2024-02-21T06:23:28;6.88;;;5.28;;
82415;SDS011;72058;47.782;10.618;2024-02-21T06:25:53;5.57;;;5.07;;
82415;SDS011;72058;47.782;10.618;2024-02-21T06:28:19;7.97;;;5.20;;
82415;SDS011;72058;47.782;10.618;2024-02-21T06:30:45;4.95;;;4.30;;
82415;SDS011;72058;47.782;10.618;2024-02-21T06:33:10;6.25;;;5.38;;
82415;SDS011;72058;47.782;10.618;2024-02-21T06:35:36;7.23;;;5.10;;
82415;SDS011;72058;47.782;10.618;2024-02-21T06:38:02;5.32;;;4.10;;
82415;SDS011;72058;47.782;10.618;2024-02-21T06:40:28;8.65;;;4.20;;
82415;SDS011;72058;47.782;10.618;2024-02-21T06:42:53;4.75;;;3.85;;
82415;SDS011;72058;47.782;10.618;2024-02-21T06:45:18;4.63;;;4.33;;
82415;SDS011;72058;47.782;10.618;2024-02-21T06:47:44;6.20;;;4.40;;
82415;SDS011;72058;47.782;10.618;2024-02-21T06:50:09;4.17;;;3.77;;
82415;SDS011;72058;47.782;10.618;2024-02-21T06:52:35;5.55;;;5.05;;
82415;SDS011;72058;47.782;10.618;2024-02-21T06:55:01;5.43;;;4.10;;
82415;SDS011;72058;47.782;10.618;2024-02-21T06:57:26;9.63;;;6.17;;
82415;SDS011;72058;47.782;10.618;2024-02-21T06:59:53;10.57;;;7.57;;
82415;SDS011;72058;47.782;10.618;2024-02-21T07:02:18;11.37;;;7.77;;
82415;SDS011;72058;47.782;10.618;2024-02-21T07:04:44;6.90;;;6.30;;
82415;SDS011;72058;47.782;10.618;2024-02-21T07:07:09;8.17;;;5.43;;
82415;SDS011;72058;47.782;10.618;2024-02-21T07:09:34;5.85;;;4.95;;
82415;SDS011;72058;47.782;10.618;2024-02-21T07:12:00;4.80;;;4.35;;
82415;SDS011;72058;47.782;10.618;2024-02-21T07:14:27;5.60;;;4.75;;
82415;SDS011;72058;47.782;10.618;2024-02-21T07:16:53;7.75;;;4.22;;
82415;SDS011;72058;47.782;10.618;2024-02-21T07:19:19;3.63;;;3.33;;
82415;SDS011;72058;47.782;10.618;2024-02-21T07:21:44;5.53;;;3.30;;
82415;SDS011;72058;47.782;10.618;2024-02-21T07:24:10;2.72;;;2.53;;
82415;SDS011;72058;47.782;10.618;2024-02-21T07:26:35;3.17;;;2.83;;
82415;SDS011;72058;47.782;10.618;2024-02-21T07:29:00;3.17;;;2.87;;
82415;SDS011;72058;47.782;10.618;2024-02-21T07:31:26;3.93;;;3.53;;
82415;SDS011;72058;47.782;10.618;2024-02-21T07:33:51;3.13;;;2.63;;
82415;SDS011;72058;47.782;10.618;2024-02-21T07:36:25;3.97;;;3.37;;
82415;SDS011;72058;47.782;10.618;2024-02-21T07:38:54;3.42;;;3.13;;
82415;SDS011;72058;47.782;10.618;2024-02-21T07:41:20;3.78;;;3.45;;
82415;SDS011;72058;47.782;10.618;2024-02-21T07:43:45;3.90;;;3.50;;
82415;SDS011;72058;47.782;10.618;2024-02-21T07:46:10;4.90;;;3.73;;
82415;SDS011;72058;47.782;10.618;2024-02-21T07:48:36;6.40;;;3.90;;
82415;SDS011;72058;47.782;10.618;2024-02-21T07:51:01;3.87;;;3.57;;
82415;SDS011;72058;47.782;10.618;2024-02-21T07:53:27;5.85;;;3.83;;
82415;SDS011;72058;47.782;10.618;2024-02-21T07:55:52;4.10;;;3.50;;
82415;SDS011;72058;47.782;10.618;2024-02-21T07:58:17;3.27;;;2.83;;
82415;SDS011;72058;47.782;10.618;2024-02-21T08:00:43;3.63;;;3.13;;
82415;SDS011;72058;47.782;10.618;2024-02-21T08:03:08;3.60;;;3.13;;
82415;SDS011;72058;47.782;10.618;2024-02-21T08:05:36;4.27;;;3.87;;
82415;SDS011;72058;47.782;10.618;2024-02-21T08:08:02;3.17;;;2.97;;
82415;SDS011;72058;47.782;10.618;2024-02-21T08:10:28;3.60;;;3.30;;
82415;SDS011;72058;47.782;10.618;2024-02-21T08:12:54;4.57;;;3.30;;
82415;SDS011;72058;47.782;10.618;2024-02-21T08:15:19;5.83;;;3.73;;
82415;SDS011;72058;47.782;10.618;2024-02-21T08:17:45;5.13;;;4.55;;
82415;SDS011;72058;47.782;10.618;2024-02-21T08:20:11;4.97;;;3.27;;
82415;SDS011;72058;47.782;10.618;2024-02-21T08:22:39;6.05;;;3.28;;
82415;SDS011;72058;47.782;10.618;2024-02-21T08:25:04;4.25;;;3.10;;
82415;SDS011;72058;47.782;10.618;2024-02-21T08:27:30;3.55;;;2.83;;
82415;SDS011;72058;47.782;10.618;2024-02-21T08:29:56;2.90;;;2.67;;
82415;SDS011;72058;47.782;10.618;2024-02-21T08:32:21;3.63;;;3.17;;
82415;SDS011;72058;47.782;10.618;2024-02-21T08:34:46;3.33;;;2.70;;
82415;SDS011;72058;47.782;10.618;2024-02-21T08:37:12;3.27;;;2.60;;
82415;SDS011;72058;47.782;10.618;2024-02-21T08:39:37;2.53;;;2.33;;
82415;SDS011;72058;47.782;10.618;2024-02-21T08:42:03;3.30;;;2.15;;
82415;SDS011;72058;47.782;10.618;2024-02-21T08:44:28;3.35;;;3.05;;
82415;SDS011;72058;47.782;10.618;2024-02-21T08:46:54;3.03;;;2.83;;
82415;SDS011;72058;47.782;10.618;2024-02-21T08:49:19;2.47;;;2.28;;
82415;SDS011;72058;47.782;10.618;2024-02-21T08:51:45;2.35;;;2.22;;
82415;SDS011;72058;47.782;10.618;2024-02-21T08:54:11;2.80;;;2.42;;
82415;SDS011;72058;47.782;10.618;2024-02-21T08:56:37;2.67;;;2.47;;
82415;SDS011;72058;47.782;10.618;2024-02-21T08:59:02;2.75;;;2.55;;
82415;SDS011;72058;47.782;10.618;2024-02-21T09:01:28;2.63;;;2.42;;
82415;SDS011;72058;47.782;10.618;2024-02-21T09:03:54;2.58;;;2.38;;
82415;SDS011;72058;47.782;10.618;2024-02-21T09:06:21;2.67;;;2.28;;
82415;SDS011;72058;47.782;10.618;2024-02-21T09:08:46;3.05;;;2.60;;
82415;SDS011;72058;47.782;10.618;2024-02-21T09:11:12;2.77;;;2.57;;
82415;SDS011;72058;47.782;10.618;2024-02-21T09:13:37;2.47;;;2.03;;
82415;SDS011;72058;47.782;10.618;2024-02-21T09:16:02;2.37;;;2.17;;
82415;SDS011;72058;47.782;10.618;2024-02-21T09:18:28;3.15;;;2.55;;
82415;SDS011;72058;47.782;10.618;2024-02-21T09:20:54;2.78;;;2.35;;
82415;SDS011;72058;47.782;10.618;2024-02-21T09:23:20;2.55;;;2.35;;
82415;SDS011;72058;47.782;10.618;2024-02-21T09:25:45;2.22;;;2.03;;
82415;SDS011;72058;47.782;10.618;2024-02-21T09:28:11;2.65;;;2.45;;
82415;SDS011;72058;47.782;10.618;2024-02-21T09:30:38;3.15;;;2.08;;
82415;SDS011;72058;47.782;10.618;2024-02-21T09:33:03;4.07;;;2.47;;
82415;SDS011;72058;47.782;10.618;2024-02-21T09:35:30;3.15;;;1.90;;
82415;SDS011;72058;47.782;10.618;2024-02-21T09:37:55;2.50;;;2.00;;
82415;SDS011;72058;47.782;10.618;2024-02-21T09:40:21;2.30;;;1.97;;
82415;SDS011;72058;47.782;10.618;2024-02-21T09:42:47;3.13;;;2.83;;
82415;SDS011;72058;47.782;10.618;2024-02-21T09:45:20;1.80;;;1.70;;
82415;SDS011;72058;47.782;10.618;2024-02-21T09:50:30;2.42;;;2.15;;
82415;SDS011;72058;47.782;10.618;2024-02-21T09:52:59;1.77;;;1.60;;
82415;SDS011;72058;47.782;10.618;2024-02-21T09:55:27;2.60;;;1.90;;
82415;SDS011;72058;47.782;10.618;2024-02-21T09:57:54;2.55;;;2.35;;
82415;SDS011;72058;47.782;10.618;2024-02-21T10:00:22;2.35;;;2.15;;
82415;SDS011;72058;47.782;10.618;2024-02-21T10:02:48;3.53;;;2.38;;
82415;SDS011;72058;47.782;10.618;2024-02-21T10:07:40;3.97;;;2.03;;
82415;SDS011;72058;47.782;10.618;2024-02-21T10:10:06;2.22;;;2.00;;
82415;SDS011;72058;47.782;10.618;2024-02-21T10:12:32;3.80;;;3.50;;
82415;SDS011;72058;47.782;10.618;2024-02-21T10:15:04;1.75;;;1.65;;
82415;SDS011;72058;47.782;10.618;2024-02-21T10:17:31;2.28;;;2.08;;
82415;SDS011;72058;47.782;10.618;2024-02-21T10:22:33;1.73;;;1.63;;
82415;SDS011;72058;47.782;10.618;2024-02-21T10:25:07;1.58;;;1.48;;
82415;SDS011;72058;47.782;10.618;2024-02-21T10:27:36;2.30;;;2.10;;
82415;SDS011;72058;47.782;10.618;2024-02-21T10:30:02;1.75;;;1.52;;
82415;SDS011;72058;47.782;10.618;2024-02-21T10:32:28;2.03;;;1.65;;
82415;SDS011;72058;47.782;10.618;2024-02-21T10:35:01;1.80;;;1.67;;
82415;SDS011;72058;47.782;10.618;2024-02-21T10:37:30;2.60;;;2.10;;
82415;SDS011;72058;47.782;10.618;2024-02-21T10:39:58;1.88;;;1.77;;
82415;SDS011;72058;47.782;10.618;2024-02-21T10:42:26;2.33;;;2.13;;
82415;SDS011;72058;47.782;10.618;2024-02-21T10:44:54;2.35;;;2.15;;
82415;SDS011;72058;47.782;10.618;2024-02-21T10:47:26;1.85;;;1.75;;
82415;SDS011;72058;47.782;10.618;2024-02-21T10:49:57;1.85;;;1.75;;
82415;SDS011;72058;47.782;10.618;2024-02-21T10:52:43;2.28;;;1.50;;
82415;SDS011;72058;47.782;10.618;2024-02-21T10:56:01;2.92;;;2.03;;
82415;SDS011;72058;47.782;10.618;2024-02-21T10:58:06;3.70;;;1.92;;
82415;SDS011;72058;47.782;10.618;2024-02-21T11:00:32;2.08;;;1.92;;
82415;SDS011;72058;47.782;10.618;2024-02-21T11:02:58;1.83;;;1.73;;
82415;SDS011;72058;47.782;10.618;2024-02-21T11:05:24;2.17;;;1.83;;
82415;SDS011;72058;47.782;10.618;2024-02-21T11:07:52;2.72;;;1.92;;
82415;SDS011;72058;47.782;10.618;2024-02-21T11:10:24;1.90;;;1.77;;
82415;SDS011;72058;47.782;10.618;2024-02-21T11:13:09;2.20;;;1.63;;
82415;SDS011;72058;47.782;10.618;2024-02-21T11:15:35;1.70;;;1.60;;
82415;SDS011;72058;47.782;10.618;2024-02-21T11:18:00;1.60;;;1.50;;
82415;SDS011;72058;47.782;10.618;2024-02-21T11:20:35;1.60;;;1.50;;
82415;SDS011;72058;47.782;10.618;2024-02-21T11:23:01;3.13;;;2.10;;
82415;SDS011;72058;47.782;10.618;2024-02-21T11:25:27;2.58;;;2.28;;
82415;SDS011;72058;47.782;10.618;2024-02-21T11:27:59;2.13;;;1.92;;
82415;SDS011;72058;47.782;10.618;2024-02-21T11:30:29;2.83;;;2.63;;
82415;SDS011;72058;47.782;10.618;2024-02-21T11:33:02;2.25;;;2.05;;
82415;SDS011;72058;47.782;10.618;2024-02-21T11:35:32;1.80;;;1.70;;
82415;SDS011;72058;47.782;10.618;2024-02-21T11:38:08;1.73;;;1.60;;
82415;SDS011;72058;47.782;10.618;2024-02-21T11:40:41;1.75;;;1.65;;
82415;SDS011;72058;47.782;10.618;2024-02-21T11:43:09;2.30;;;1.98;;
82415;SDS011;72058;47.782;10.618;2024-02-21T11:45:35;1.77;;;1.60;;
82415;SDS011;72058;47.782;10.618;2024-02-21T11:48:00;1.77;;;1.67;;
82415;SDS011;72058;47.782;10.618;2024-02-21T11:50:28;1.85;;;1.75;;
82415;SDS011;72058;47.782;10.618;2024-02-21T11:52:54;1.75;;;1.65;;
82415;SDS011;72058;47.782;10.618;2024-02-21T11:55:20;2.17;;;1.70;;
82415;SDS011;72058;47.782;10.618;2024-02-21T11:57:47;2.30;;;2.10;;
82415;SDS011;72058;47.782;10.618;2024-02-21T12:00:16;1.75;;;1.65;;
82415;SDS011;72058;47.782;10.618;2024-02-21T12:02:45;2.25;;;2.05;;
82415;SDS011;72058;47.782;10.618;2024-02-21T12:05:11;2.05;;;1.70;;
82415;SDS011;72058;47.782;10.618;2024-02-21T12:07:36;2.60;;;1.77;;
82415;SDS011;72058;47.782;10.618;2024-02-21T12:10:08;1.73;;;1.63;;
82415;SDS011;72058;47.782;10.618;2024-02-21T12:12:35;2.00;;;1.90;;
82415;SDS011;72058;47.782;10.618;2024-02-21T12:15:02;1.95;;;1.65;;
82415;SDS011;72058;47.782;10.618;2024-02-21T12:17:29;1.63;;;1.52;;
82415;SDS011;72058;47.782;10.618;2024-02-21T12:19:56;2.13;;;1.92;;
82415;SDS011;72058;47.782;10.618;2024-02-21T12:22:22;1.83;;;1.67;;
82415;SDS011;72058;47.782;10.618;2024-02-21T12:24:47;2.63;;;2.20;;
82415;SDS011;72058;47.782;10.618;2024-02-21T12:27:13;2.20;;;2.00;;
82415;SDS011;72058;47.782;10.618;2024-02-21T12:29:38;2.85;;;1.83;;
82415;SDS011;72058;47.782;10.618;2024-02-21T12:32:04;1.75;;;1.65;;
82415;SDS011;72058;47.782;10.618;2024-02-21T12:34:29;1.80;;;1.70;;
82415;SDS011;72058;47.782;10.618;2024-02-21T12:36:58;1.55;;;1.38;;
82415;SDS011;72058;47.782;10.618;2024-02-21T12:39:23;3.25;;;1.60;;
82415;SDS011;72058;47.782;10.618;2024-02-21T12:41:49;1.95;;;1.75;;
82415;SDS011;72058;47.782;10.618;2024-02-21T12:44:14;1.88;;;1.70;;
82415;SDS011;72058;47.782;10.618;2024-02-21T12:46:42;2.42;;;2.00;;
82415;SDS011;72058;47.782;10.618;2024-02-21T12:49:07;1.60;;;1.50;;
82415;SDS011;72058;47.782;10.618;2024-02-21T12:51:33;1.77;;;1.67;;
82415;SDS011;72058;47.782;10.618;2024-02-21T12:53:59;1.75;;;1.65;;
82415;SDS011;72058;47.782;10.618;2024-02-21T12:56:25;1.77;;;1.63;;
82415;SDS011;72058;47.782;10.618;2024-02-21T12:58:52;2.13;;;1.92;;
82415;SDS011;72058;47.782;10.618;2024-02-21T13:01:18;1.85;;;1.75;;
82415;SDS011;72058;47.782;10.618;2024-02-21T13:03:43;2.20;;;2.00;;
82415;SDS011;72058;47.782;10.618;2024-02-21T13:06:09;2.13;;;1.92;;
82415;SDS011;72058;47.782;10.618;2024-02-21T13:08:37;2.13;;;1.92;;
82415;SDS011;72058;47.782;10.618;2024-02-21T13:11:02;2.30;;;2.10;;
82415;SDS011;72058;47.782;10.618;2024-02-21T13:13:29;2.25;;;2.05;;
82415;SDS011;72058;47.782;10.618;2024-02-21T13:15:54;2.20;;;1.98;;
82415;SDS011;72058;47.782;10.618;2024-02-21T13:18:20;1.67;;;1.55;;
82415;SDS011;72058;47.782;10.618;2024-02-21T13:20:45;2.10;;;1.90;;
82415;SDS011;72058;47.782;10.618;2024-02-21T13:23:10;2.10;;;1.70;;
82415;SDS011;72058;47.782;10.618;2024-02-21T13:25:36;2.23;;;1.90;;
82415;SDS011;72058;47.782;10.618;2024-02-21T13:28:01;2.03;;;1.90;;
82415;SDS011;72058;47.782;10.618;2024-02-21T13:32:53;2.63;;;2.10;;
82415;SDS011;72058;47.782;10.618;2024-02-21T13:35:19;1.75;;;1.63;;
82415;SDS011;72058;47.782;10.618;2024-02-21T13:37:45;1.73;;;1.63;;
82415;SDS011;72058;47.782;10.618;2024-02-21T13:40:11;2.00;;;1.52;;
82415;SDS011;72058;47.782;10.618;2024-02-21T13:42:38;1.80;;;1.65;;
82415;SDS011;72058;47.782;10.618;2024-02-21T13:45:04;1.95;;;1.55;;
82415;SDS011;72058;47.782;10.618;2024-02-21T13:47:31;2.25;;;1.55;;
82415;SDS011;72058;47.782;10.618;2024-02-21T13:49:57;1.75;;;1.65;;
82415;SDS011;72058;47.782;10.618;2024-02-21T13:52:22;1.90;;;1.75;;
82415;SDS011;72058;47.782;10.618;2024-02-21T13:54:51;1.90;;;1.80;;
82415;SDS011;72058;47.782;10.618;2024-02-21T13:57:16;2.90;;;1.63;;
82415;SDS011;72058;47.782;10.618;2024-02-21T13:59:42;2.10;;;1.77;;
82415;SDS011;72058;47.782;10.618;2024-02-21T14:02:07;2.65;;;1.70;;
82415;SDS011;72058;47.782;10.618;2024-02-21T14:04:33;2.15;;;1.85;;
82415;SDS011;72058;47.782;10.618;2024-02-21T14:06:59;1.95;;;1.63;;
82415;SDS011;72058;47.782;10.618;2024-02-21T14:09:25;2.20;;;1.75;;
82415;SDS011;72058;47.782;10.618;2024-02-21T14:11:51;2.33;;;2.08;;
82415;SDS011;72058;47.782;10.618;2024-02-21T14:14:16;2.50;;;1.60;;
82415;SDS011;72058;47.782;10.618;2024-02-21T14:16:41;1.50;;;1.40;;
82415;SDS011;72058;47.782;10.618;2024-02-21T14:19:07;2.80;;;1.90;;
82415;SDS011;72058;47.782;10.618;2024-02-21T14:21:33;1.65;;;1.52;;
82415;SDS011;72058;47.782;10.618;2024-02-21T14:24:02;2.22;;;1.90;;
82415;SDS011;72058;47.782;10.618;2024-02-21T14:26:28;1.48;;;1.35;;
82415;SDS011;72058;47.782;10.618;2024-02-21T14:28:56;1.55;;;1.45;;
82415;SDS011;72058;47.782;10.618;2024-02-21T14:31:22;2.60;;;1.50;;
82415;SDS011;72058;47.782;10.618;2024-02-21T14:33:47;1.75;;;1.55;;
82415;SDS011;72058;47.782;10.618;2024-02-21T14:36:12;1.33;;;1.23;;
82415;SDS011;72058;47.782;10.618;2024-02-21T14:38:38;1.63;;;1.52;;
82415;SDS011;72058;47.782;10.618;2024-02-21T14:41:03;2.50;;;2.03;;